Latest Weather Observations for Adelaide Airport

IDS60901

Issued at 2:55 pm CST Wednesday 17 September 2014 (issued every 10 minutes, with the page automatically refreshed every 10 minutes)

About weather observations | Map of Adelaide area stations | Latest observations for Adelaide area | Other Formats
Station Details ID: 023034 Name: ADELAIDE AIRPORT Lat: -34.95 Lon: 138.52 Height: 2.0 m
Data from the previous 72 hours. | See also: Recent months at Adelaide Airport
Date/Time
CST
Tmp

°C
App
Tmp
°C
Dew
Point
°C
Rel
Hum
%
Delta-T

°C
Wind Press
QNH
hPa
Press
MSL
hPa
Rain
since
9 am
mm
Dir
 
Spd
km/h
Gust
km/h
Spd
kts
Gust
kts
17/02:30pm 15.6 9.1 2.9 42 5.7 SW 26 32 14 17 1022.0 - 0.0
17/02:00pm 15.4 8.9 4.7 49 5.0 SW 28 33 15 18 1022.2 - 0.0
17/01:30pm 15.7 9.4 5.6 51 4.8 WSW 28 35 15 19 1022.2 - 0.0
17/01:00pm 15.0 9.1 7.3 60 3.8 WSW 28 33 15 18 1022.2 - 0.0
17/12:30pm 15.1 9.6 7.6 61 3.7 SW 26 32 14 17 1022.3 - 0.0
17/12:00pm 15.7 10.3 7.9 59 3.9 SW 26 32 14 17 1022.5 1022.5 0.0
17/11:30am 15.4 10.6 8.7 64 3.4 WSW 24 32 13 17 1022.6 - 0.0
17/11:00am 15.1 10.5 8.1 63 3.5 SSW 22 30 12 16 1022.3 - 0.0
17/10:30am 13.9 10.3 8.5 70 2.7 SSW 17 26 9 14 1022.3 - 0.0
17/10:00am 14.8 11.0 8.9 68 3.0 SW 19 26 10 14 1022.4 - 0.0
17/09:30am 14.6 9.7 8.6 67 3.0 SSW 24 30 13 16 1022.2 - 0.0
17/09:00am 13.7 8.8 8.3 70 2.7 SW 24 32 13 17 1021.9 1021.9 0.0
17/08:30am 13.9 9.8 7.8 66 3.0 SW 19 28 10 15 1021.5 - 0.0
17/08:00am 13.2 9.5 7.9 70 2.6 SW 17 26 9 14 1021.2 - 0.0
17/07:30am 12.5 9.2 8.0 74 2.2 SW 15 22 8 12 1020.8 - 0.0
17/07:00am 12.2 10.5 8.3 77 1.9 SSE 7 13 4 7 1020.4 - 0.0
17/06:30am 12.0 9.1 8.3 78 1.8 SW 13 19 7 10 1020.0 - 0.0
17/06:00am 11.9 8.6 8.2 78 1.8 SW 15 20 8 11 1019.7 1019.7 0.0
17/05:30am 12.0 8.3 7.9 76 2.0 SW 17 24 9 13 1019.4 - 0.0
17/05:00am 12.0 7.3 7.9 76 2.0 SW 22 28 12 15 1019.2 - 0.0
17/04:30am 12.1 7.3 8.7 80 1.7 WSW 24 30 13 16 1019.0 - 0.0
17/04:00am 11.7 7.2 8.7 82 1.5 WSW 22 32 12 17 1018.8 - 0.0
17/03:30am 12.4 8.4 8.1 75 2.1 SW 19 30 10 16 1018.7 - 0.0
17/03:00am 12.8 8.5 7.9 72 2.4 SW 20 30 11 16 1018.8 1018.8 0.0
17/02:30am 12.6 8.0 6.5 66 2.9 SW 20 28 11 15 1018.9 - 0.0
17/02:00am 12.6 7.9 6.0 64 3.1 SW 20 28 11 15 1019.0 - 0.0
17/01:30am 13.1 7.4 4.8 57 3.8 WSW 24 30 13 16 1019.3 - 0.0
17/01:00am 13.1 8.3 4.8 57 3.8 WSW 19 26 10 14 1019.4 - 0.0
17/12:30am 12.9 7.8 4.0 54 4.0 W 20 26 11 14 1019.5 - 0.0
17/12:00am 12.9 7.7 3.8 54 4.1 WSW 20 26 11 14 1019.6 1019.6 0.0
 
Date/Time
CST
Tmp

°C
App
Tmp
°C
Dew
Point
°C
Rel
Hum
%
Delta-T

°C
Wind Press
QNH
hPa
Press
MSL
hPa
Rain
since
9 am
mm
Dir
 
Spd
km/h
Gust
km/h
Spd
kts
Gust
kts
16/11:30pm 13.1 7.7 4.3 55 4.0 SW 22 30 12 16 1019.7 - 0.0
16/11:00pm 13.2 6.6 4.2 54 4.1 SW 28 37 15 20 1019.6 - 0.0
16/10:30pm 13.0 6.6 3.0 50 4.4 SW 26 35 14 19 1019.6 - 0.0
16/10:00pm 13.1 6.6 4.6 56 3.9 SW 28 37 15 20 1019.6 - 0.0
16/09:30pm 12.9 8.2 5.9 62 3.3 SW 20 28 11 15 1019.3 - 0.0
16/09:00pm 13.0 8.7 7.9 71 2.5 WSW 20 30 11 16 1019.1 1019.1 0.0
16/08:30pm 13.0 7.5 7.7 70 2.6 SW 26 35 14 19 1018.7 - 0.0
16/08:00pm 13.5 8.0 5.9 60 3.6 W 24 32 13 17 1018.5 - 0.0
16/07:30pm 13.3 6.8 6.6 64 3.2 WSW 30 39 16 21 1018.4 - 0.0
16/07:00pm 13.4 6.7 7.2 66 3.0 WSW 32 41 17 22 1018.0 - 0.0
16/06:30pm 13.8 7.0 7.0 63 3.3 WSW 32 39 17 21 1017.6 - 0.0
16/06:00pm 14.1 8.0 6.6 60 3.6 WSW 28 33 15 18 1017.5 1017.5 0.0
16/05:30pm 14.3 8.5 8.1 66 3.1 SW 28 33 15 18 1017.5 - 0.0
16/05:00pm 14.4 10.5 9.3 71 2.6 W 20 28 11 15 1017.3 - 0.0
16/04:30pm 14.5 10.4 8.5 67 3.0 W 20 28 11 15 1017.3 - 0.0
16/04:00pm 14.4 10.1 9.5 72 2.5 WSW 22 28 12 15 1017.2 - 0.0
16/03:30pm 14.7 9.9 9.0 68 2.9 SW 24 30 13 16 1017.0 - 0.0
16/03:00pm 15.4 10.3 7.5 59 3.9 WSW 24 30 13 16 1016.8 1016.8 0.0
16/02:30pm 16.5 12.2 8.0 57 4.3 WSW 20 28 11 15 1016.8 - 0.0
16/02:00pm 15.9 11.3 8.2 60 3.9 SW 22 28 12 15 1017.0 - 0.0
16/01:30pm 15.7 11.9 9.9 68 3.0 W 20 28 11 15 1017.2 - 0.0
16/01:00pm 15.5 12.2 9.7 68 3.0 W 17 22 9 12 1017.4 - 0.0
16/12:30pm 15.3 11.7 9.7 69 2.9 W 19 26 10 14 1017.6 - 0.0
16/12:00pm 15.3 12.3 9.3 67 3.1 W 15 22 8 12 1017.8 1017.8 0.0
16/11:30am 15.3 12.1 9.9 70 2.8 W 17 24 9 13 1018.0 - 0.0
16/11:00am 15.3 11.6 10.3 72 2.6 WSW 20 26 11 14 1018.5 - 0.0
16/10:30am 15.8 11.2 9.6 66 3.2 WSW 24 32 13 17 1018.4 - 0.0
16/10:00am 15.5 11.4 10.1 70 2.8 WSW 22 28 12 15 1018.6 - 0.0
16/09:30am 15.1 11.5 9.7 70 2.8 WSW 19 26 10 14 1018.5 - 0.0
16/09:00am 14.9 11.1 9.7 71 2.7 WSW 20 28 11 15 1018.6 1018.6 0.0
16/08:30am 14.6 10.9 9.5 71 2.6 SW 19 24 10 13 1018.6 - 0.0
16/08:00am 14.1 10.0 10.0 76 2.1 SW 22 28 12 15 1018.5 - 0.0
16/07:30am 14.0 10.3 10.1 77 2.0 SW 20 26 11 14 1018.2 - 0.0
16/07:00am 13.4 9.6 9.7 78 1.9 WSW 20 28 11 15 1018.0 - 0.0
16/06:30am 13.4 9.6 9.9 79 1.8 SW 20 26 11 14 1017.7 - 0.0
16/06:00am 13.2 8.8 10.5 84 1.4 SW 24 32 13 17 1017.6 1017.6 0.0
16/05:30am 13.3 9.3 10.4 82 1.5 SW 22 30 12 16 1017.5 - 0.0
16/05:00am 13.2 10.2 10.7 85 1.3 SW 17 24 9 13 1017.3 - 0.0
16/04:30am 13.0 9.0 10.5 85 1.3 SW 22 30 12 16 1016.9 - 0.0
16/04:00am 13.4 9.1 10.7 84 1.4 SW 24 32 13 17 1016.7 - 0.0
16/03:30am 13.4 9.8 10.7 84 1.4 SW 20 28 11 15 1016.5 - 0.0
16/03:00am 13.3 9.0 10.8 85 1.3 SW 24 32 13 17 1016.5 1016.5 0.0
16/02:30am 13.4 9.4 10.5 82 1.5 SW 22 28 12 15 1016.5 - 0.0
16/02:00am 13.4 10.1 10.9 85 1.3 SW 19 26 10 14 1016.7 - 0.0
16/01:30am 13.1 9.5 10.0 81 1.6 SW 19 26 10 14 1017.0 - 0.0
16/01:00am 13.2 9.9 10.9 86 1.2 SW 19 26 10 14 1017.1 - 0.0
16/12:30am 13.3 9.7 10.6 84 1.4 SW 20 28 11 15 1017.2 - 0.0
16/12:00am 13.3 9.7 10.4 82 1.5 SW 20 32 11 17 1017.2 1017.2 0.0
 
Date/Time
CST
Tmp

°C
App
Tmp
°C
Dew
Point
°C
Rel
Hum
%
Delta-T

°C
Wind Press
QNH
hPa
Press
MSL
hPa
Rain
since
9 am
mm
Dir
 
Spd
km/h
Gust
km/h
Spd
kts
Gust
kts
15/11:30pm 13.4 9.8 10.7 84 1.4 SW 20 26 11 14 1017.1 - 0.0
15/11:00pm 13.4 9.7 10.3 81 1.6 SW 20 28 11 15 1017.1 - 0.0
15/10:30pm 13.6 8.7 10.1 79 1.8 SW 26 35 14 19 1017.1 - 0.0
15/10:00pm 13.7 9.7 10.6 81 1.6 SSW 22 32 12 17 1017.2 - 0.0
15/09:30pm 13.9 10.3 10.7 81 1.7 SSW 20 30 11 16 1017.2 - 0.0
15/09:00pm 13.7 10.1 10.4 80 1.7 SSW 20 30 11 16 1017.2 1017.2 0.0
15/08:30pm 13.9 9.0 9.8 76 2.1 SSW 26 37 14 20 1017.0 - 0.0
15/08:00pm 14.0 9.8 9.9 76 2.1 SSW 22 33 12 18 1016.8 - 0.0
15/07:30pm 13.6 10.0 10.5 81 1.6 SSW 20 28 11 15 1016.2 - 0.0
15/07:00pm 14.1 8.6 10.5 79 1.9 SW 30 39 16 21 1015.8 - 0.0
15/06:31pm 14.1 8.6 10.5 79 1.9 SW 30 48 16 26 1015.6 - 0.0
15/06:30pm 14.1 9.0 10.5 79 1.9 SW 28 41 15 22 1015.6 - 0.0
15/06:00pm 14.2 9.9 10.6 79 1.9 SSW 24 37 13 20 1015.1 1015.1 0.0
15/05:30pm 14.5 9.0 10.5 77 2.1 SSW 30 41 16 22 1014.7 - 0.0
15/05:00pm 15.2 9.4 10.9 75 2.3 SW 32 46 17 25 1014.7 - 0.0
15/04:30pm 15.0 8.6 10.6 75 2.3 SSW 35 48 19 26 1014.3 - 0.0
15/04:00pm 15.0 9.7 11.3 78 2.0 SW 30 39 16 21 1014.0 - 0.0
15/03:30pm 15.2 9.5 11.3 77 2.1 SW 32 46 17 25 1013.9 - 0.0
15/03:00pm 15.8 9.8 10.9 72 2.6 SW 33 46 18 25 1013.5 1013.5 0.0
15/02:30pm 15.8 10.0 11.5 75 2.3 SW 33 48 18 26 1013.2 - 0.0
15/02:00pm 15.7 9.9 10.8 72 2.6 SSW 32 43 17 23 1013.1 - 0.0
15/01:30pm 16.6 9.8 10.6 67 3.2 SSW 37 54 20 29 1012.7 - 0.0
15/01:00pm 16.7 9.2 10.7 67 3.2 SW 41 57 22 31 1012.2 - 0.0
15/12:33pm 17.1 10.3 9.2 59 4.1 SSW 35 54 19 29 1011.5 - 0.0
15/12:30pm 17.0 10.0 9.8 62 3.8 SSW 37 54 20 29 1011.6 - 0.0
15/12:00pm 17.1 11.0 10.5 65 3.5 SW 33 52 18 28 1011.4 1011.4 0.0
15/11:30am 16.6 10.3 11.2 70 2.9 SW 35 44 19 24 1011.3 - 0.0
15/11:00am 16.5 9.2 11.7 73 2.6 SW 41 56 22 30 1010.9 - 0.0
15/10:30am 16.2 10.4 12.8 80 1.9 WSW 35 48 19 26 1010.5 - 0.0
15/10:24am 15.8 10.4 12.7 82 1.7 WSW 33 48 18 26 1010.6 - 0.0
15/10:00am 14.7 11.2 12.3 85 1.3 SW 22 32 12 17 1010.4 - 0.0
15/09:30am 14.5 9.6 12.5 88 1.1 W 30 39 16 21 1010.1 - 0.0
15/09:15am 14.5 9.8 11.9 84 1.4 W 28 35 15 19 1010.0 - 0.0
15/09:00am 14.8 9.6 11.6 81 1.7 W 30 35 16 19 1009.9 1009.9 0.0
15/08:30am 15.1 11.2 12.2 83 1.6 WNW 24 33 13 18 1009.7 - 0.0
15/08:00am 14.7 10.9 12.3 85 1.3 WNW 24 30 13 16 1009.9 - 0.0
15/07:39am 14.7 10.9 12.3 85 1.3 WNW 24 32 13 17 1009.7 - 0.0
15/07:30am 14.6 10.3 12.2 85 1.3 WNW 26 32 14 17 1009.7 - 0.0
15/07:00am 14.6 10.5 11.6 82 1.6 NNW 24 33 13 18 1009.6 - 0.0
15/06:30am 14.4 9.8 11.2 81 1.7 NNW 26 35 14 19 1009.4 - 0.0
15/06:00am 14.4 9.8 11.0 80 1.8 NNW 26 35 14 19 1009.5 1009.5 0.0
15/05:30am 13.6 10.9 10.5 81 1.6 N 15 19 8 10 1009.6 - 0.0
15/05:00am 13.2 11.2 10.1 81 1.6 N 11 19 6 10 1009.8 - 0.0
15/04:30am 13.5 11.2 10.4 81 1.6 NNE 13 17 7 9 1009.9 - 0.0
15/04:00am 13.4 10.8 10.7 84 1.4 NNE 15 19 8 10 1009.8 - 0.0
15/03:30am 13.3 10.3 10.6 84 1.4 N 17 22 9 12 1010.0 - 0.0
15/03:00am 13.4 10.0 10.7 84 1.4 N 19 24 10 13 1010.2 1010.2 0.0
15/02:30am 13.1 10.0 10.2 82 1.5 N 17 20 9 11 1010.3 - 0.0
15/02:00am 13.0 10.5 10.9 87 1.1 N 15 19 8 10 1010.8 - 0.0
15/01:30am 13.9 11.9 11.5 85 1.3 N 13 22 7 12 1011.2 - 0.0
15/01:00am 14.1 12.1 11.5 84 1.4 N 13 17 7 9 1011.8 - 0.0
15/12:47am 14.4 12.5 11.8 84 1.4 NNW 13 19 7 10 1011.8 - 0.0
15/12:30am 14.5 12.8 12.3 87 1.2 NNW 13 19 7 10 1012.0 - 0.0
15/12:00am 14.9 12.6 12.9 88 1.1 W 17 24 9 13 1012.3 1012.3 0.0
 
Date/Time
CST
Tmp

°C
App
Tmp
°C
Dew
Point
°C
Rel
Hum
%
Delta-T

°C
Wind Press
QNH
hPa
Press
MSL
hPa
Rain
since
9 am
mm
Dir
 
Spd
km/h
Gust
km/h
Spd
kts
Gust
kts
14/11:47pm 15.0 12.6 12.8 87 1.2 WNW 17 20 9 11 1012.3 - 0.0
14/11:30pm 15.2 12.7 12.3 83 1.6 WNW 17 26 9 14 1012.2 - 0.0
14/11:00pm 16.3 12.3 11.9 75 2.4 WNW 24 32 13 17 1012.3 - 0.0
14/10:30pm 20.2 15.4 5.4 38 7.3 NNW 20 30 11 16 1012.0 - 0.0
14/10:00pm 20.0 16.0 6.5 41 6.8 N 17 22 9 12 1011.7 - 0.0
14/09:35pm 21.3 14.0 5.4 35 7.9 NNW 33 44 18 24 1011.4 - 0.0
14/09:30pm 20.9 16.0 5.0 35 7.8 N 20 26 11 14 1011.3 - 0.0
14/09:00pm 21.0 14.7 5.5 36 7.7 NE 28 35 15 19 1010.6 1010.6 0.0
14/08:30pm 21.3 15.4 6.0 37 7.7 ENE 26 33 14 18 1010.8 - 0.0
14/08:00pm 21.4 14.8 6.1 37 7.7 ENE 30 37 16 20 1011.1 - 0.0
14/07:30pm 20.6 15.3 6.8 40 7.0 ENE 24 37 13 20 1011.3 - 0.0
14/07:00pm 20.7 15.5 7.2 41 6.9 ENE 24 32 13 17 1011.6 - 0.0
14/06:30pm 21.0 16.0 8.2 43 6.7 E 24 32 13 17 1012.1 - 0.0
14/06:00pm 22.4 18.3 8.6 41 7.3 E 20 28 11 15 1012.4 1012.4 0.0
14/05:30pm 24.4 19.8 5.8 30 9.5 N 19 24 10 13 1012.5 - 0.0
14/05:00pm 25.1 19.4 4.8 27 10.2 N 24 32 13 17 1012.3 - 0.0
14/04:30pm 25.8 20.2 5.5 27 10.4 NNE 24 28 13 15 1012.1 - 0.0
14/04:00pm 24.9 19.9 6.6 31 9.5 NNE 22 32 12 17 1012.5 - 0.0
14/03:30pm 25.5 22.0 7.3 31 9.6 NW 15 24 8 13 1013.1 - 0.0
14/03:00pm 26.2 22.0 5.6 26 10.6 N 17 28 9 15 1013.4 1013.4 0.0

Latest Capital City Observations: Canberra | Sydney | Melbourne | Brisbane | Adelaide | Perth | Hobart | Darwin

Other Formats:

Comma delimited format used in spreadsheet applications
http://www.bom.gov.au/fwo/IDS60901/IDS60901.94672.axf

JavaScript Object Notation format (JSON) in row-major order
http://www.bom.gov.au/fwo/IDS60901/IDS60901.94672.json